sensor_id;sensor_type;location;lat;lon;timestamp;pressure;altitude;pressure_sealevel;temperature;humidity
63347;BME280;49472;49.880;8.650;2023-04-15T00:00:30;10461.44;;;-142.94;nan
63347;BME280;49472;49.880;8.650;2023-04-15T00:02:55;2118.00;;;-142.94;nan
63347;BME280;49472;49.880;8.650;2023-04-15T00:05:20;5550.97;;;-142.94;nan
63347;BME280;49472;49.880;8.650;2023-04-15T00:07:46;-3514.09;;;-142.94;nan
63347;BME280;49472;49.880;8.650;2023-04-15T00:10:12;-3514.09;;;-142.94;nan
63347;BME280;49472;49.880;8.650;2023-04-15T00:12:39;-4981.75;;;-142.94;nan
63347;BME280;49472;49.880;8.650;2023-04-15T00:15:05;-10845.78;;;-142.94;nan
63347;BME280;49472;49.880;8.650;2023-04-15T00:17:32;-8403.72;;;-142.94;nan
63347;BME280;49472;49.880;8.650;2023-04-15T00:19:58;-4248.00;;;-142.94;nan
63347;BME280;49472;49.880;8.650;2023-04-15T00:22:24;-7915.09;;;-142.94;nan
63347;BME280;49472;49.880;8.650;2023-04-15T00:24:51;-3514.09;;;-142.94;nan
63347;BME280;49472;49.880;8.650;2023-04-15T00:27:16;3588.84;;;-142.94;nan
63347;BME280;49472;49.880;8.650;2023-04-15T00:29:41;7023.34;;;-142.94;nan
63347;BME280;49472;49.880;8.650;2023-04-15T00:32:07;9478.75;;;-142.94;nan
63347;BME280;49472;49.880;8.650;2023-04-15T00:34:33;10215.75;;;-142.94;nan
63347;BME280;49472;49.880;8.650;2023-04-15T00:36:58;10215.75;;;-142.94;nan
63347;BME280;49472;49.880;8.650;2023-04-15T00:39:23;892.81;;;-142.94;nan
63347;BME280;49472;49.880;8.650;2023-04-15T00:41:49;-5470.81;;;-142.94;nan
63347;BME280;49472;49.880;8.650;2023-04-15T00:44:14;-10845.78;;;-142.94;nan
63347;BME280;49472;49.880;8.650;2023-04-15T00:46:40;-5226.31;;;-142.94;nan
63347;BME280;49472;49.880;8.650;2023-04-15T00:49:07;1627.88;;;-142.94;nan
63347;BME280;49472;49.880;8.650;2023-04-15T00:51:33;4079.25;;;-142.94;nan
63347;BME280;49472;49.880;8.650;2023-04-15T00:54:03;3343.66;;;-142.94;nan
63347;BME280;49472;49.880;8.650;2023-04-15T00:56:30;3588.84;;;-142.94;nan
63347;BME280;49472;49.880;8.650;2023-04-15T00:58:56;5060.34;;;-142.94;nan
63347;BME280;49472;49.880;8.650;2023-04-15T01:01:23;4324.50;;;-142.94;nan
63347;BME280;49472;49.880;8.650;2023-04-15T01:03:50;-4248.00;;;-142.94;nan
63347;BME280;49472;49.880;8.650;2023-04-15T01:06:16;-2045.78;;;-142.94;nan
63347;BME280;49472;49.880;8.650;2023-04-15T01:08:42;-4003.41;;;-142.94;nan
63347;BME280;49472;49.880;8.650;2023-04-15T01:11:09;-2045.78;;;-142.94;nan
63347;BME280;49472;49.880;8.650;2023-04-15T01:13:34;-2780.03;;;-142.94;nan
63347;BME280;49472;49.880;8.650;2023-04-15T01:16:00;-3758.75;;;-142.94;nan
63347;BME280;49472;49.880;8.650;2023-04-15T01:18:27;-7426.38;;;-142.94;nan
63347;BME280;49472;49.880;8.650;2023-04-15T01:20:53;-6693.19;;;-142.94;nan
63347;BME280;49472;49.880;8.650;2023-04-15T01:23:19;-7426.38;;;-142.94;nan
63347;BME280;49472;49.880;8.650;2023-04-15T01:25:46;-1066.56;;;-142.94;nan
63347;BME280;49472;49.880;8.650;2023-04-15T01:28:13;-5715.34;;;-142.94;nan
63347;BME280;49472;49.880;8.650;2023-04-15T01:30:38;-5959.81;;;-142.94;nan
63347;BME280;49472;49.880;8.650;2023-04-15T01:33:04;-4737.19;;;-142.94;nan
63347;BME280;49472;49.880;8.650;2023-04-15T01:35:29;-8892.28;;;-142.94;nan
63347;BME280;49472;49.880;8.650;2023-04-15T01:38:02;-3758.75;;;-142.94;nan
63347;BME280;49472;49.880;8.650;2023-04-15T01:40:29;-6693.19;;;-142.94;nan
63347;BME280;49472;49.880;8.650;2023-04-15T01:42:54;-4737.19;;;-142.94;nan
63347;BME280;49472;49.880;8.650;2023-04-15T01:45:20;-3024.75;;;-142.94;nan
63347;BME280;49472;49.880;8.650;2023-04-15T01:47:45;-1801.00;;;-142.94;nan
63347;BME280;49472;49.880;8.650;2023-04-15T01:50:10;-6693.19;;;-142.94;nan
63347;BME280;49472;49.880;8.650;2023-04-15T01:52:36;-6448.75;;;-142.94;nan
63347;BME280;49472;49.880;8.650;2023-04-15T01:55:01;-5226.31;;;-142.94;nan
63347;BME280;49472;49.880;8.650;2023-04-15T01:57:27;-10113.34;;;-142.94;nan
63347;BME280;49472;49.880;8.650;2023-04-15T01:59:52;-6937.59;;;-142.94;nan
63347;BME280;49472;49.880;8.650;2023-04-15T02:02:17;-11089.88;;;-142.94;nan
63347;BME280;49472;49.880;8.650;2023-04-15T02:04:42;-6693.19;;;-142.94;nan
63347;BME280;49472;49.880;8.650;2023-04-15T02:07:08;-6204.28;;;-142.94;nan
63347;BME280;49472;49.880;8.650;2023-04-15T02:09:34;-9136.53;;;-142.94;nan
63347;BME280;49472;49.880;8.650;2023-04-15T02:11:59;-8648.00;;;-142.94;nan
63347;BME280;49472;49.880;8.650;2023-04-15T02:14:24;-7915.09;;;-142.94;nan
63347;BME280;49472;49.880;8.650;2023-04-15T02:16:50;-7182.00;;;-142.94;nan
63347;BME280;49472;49.880;8.650;2023-04-15T02:19:15;-10113.34;;;-142.94;nan
63347;BME280;49472;49.880;8.650;2023-04-15T02:21:40;-10845.78;;;-142.94;nan
63347;BME280;49472;49.880;8.650;2023-04-15T02:24:06;-10845.78;;;-142.94;nan
63347;BME280;49472;49.880;8.650;2023-04-15T02:26:31;-13286.00;;;-142.94;nan
63347;BME280;49472;49.880;8.650;2023-04-15T02:28:57;-12310.13;;;-142.94;nan
63347;BME280;49472;49.880;8.650;2023-04-15T02:31:23;-11333.97;;;-142.94;nan
63347;BME280;49472;49.880;8.650;2023-04-15T02:33:49;-13529.94;;;-142.94;nan
63347;BME280;49472;49.880;8.650;2023-04-15T02:36:15;-13042.06;;;-142.94;nan
63347;BME280;49472;49.880;8.650;2023-04-15T02:38:40;-13531.38;;;-142.94;nan
63347;BME280;49472;49.880;8.650;2023-04-15T02:41:08;-13529.94;;;-142.94;nan
63347;BME280;49472;49.880;8.650;2023-04-15T02:43:33;-13531.38;;;-142.94;nan
63347;BME280;49472;49.880;8.650;2023-04-15T02:45:59;-13042.06;;;-142.94;nan
63347;BME280;49472;49.880;8.650;2023-04-15T02:48:24;-12310.13;;;-142.94;nan
63347;BME280;49472;49.880;8.650;2023-04-15T02:50:50;-13529.94;;;-142.94;nan
63347;BME280;49472;49.880;8.650;2023-04-15T02:53:15;-13529.94;;;-142.94;nan
63347;BME280;49472;49.880;8.650;2023-04-15T02:55:41;-12798.13;;;-142.94;nan
63347;BME280;49472;49.880;8.650;2023-04-15T02:58:06;-11578.03;;;-142.94;nan
63347;BME280;49472;49.880;8.650;2023-04-15T03:00:32;-11822.09;;;-142.94;nan
63347;BME280;49472;49.880;8.650;2023-04-15T03:03:01;-9136.53;;;-142.94;nan
63347;BME280;49472;49.880;8.650;2023-04-15T03:05:27;-12798.13;;;-142.94;nan
63347;BME280;49472;49.880;8.650;2023-04-15T03:07:52;-13042.06;;;-142.94;nan
63347;BME280;49472;49.880;8.650;2023-04-15T03:10:18;-11578.03;;;-142.94;nan
63347;BME280;49472;49.880;8.650;2023-04-15T03:12:44;-13529.94;;;-142.94;nan
63347;BME280;49472;49.880;8.650;2023-04-15T03:15:09;-13531.38;;;-142.94;nan
63347;BME280;49472;49.880;8.650;2023-04-15T03:17:35;-13531.38;;;-142.94;nan
63347;BME280;49472;49.880;8.650;2023-04-15T03:20:01;-13531.38;;;-142.94;nan
63347;BME280;49472;49.880;8.650;2023-04-15T03:22:28;-11578.03;;;-142.94;nan
63347;BME280;49472;49.880;8.650;2023-04-15T03:24:53;-12310.13;;;-142.94;nan
63347;BME280;49472;49.880;8.650;2023-04-15T03:27:18;-12066.13;;;-142.94;nan
63347;BME280;49472;49.880;8.650;2023-04-15T03:29:43;-13042.06;;;-142.94;nan
63347;BME280;49472;49.880;8.650;2023-04-15T03:32:09;-13531.38;;;-142.94;nan
63347;BME280;49472;49.880;8.650;2023-04-15T03:34:34;-13531.38;;;-142.94;nan
63347;BME280;49472;49.880;8.650;2023-04-15T03:37:00;-13042.06;;;-142.94;nan
63347;BME280;49472;49.880;8.650;2023-04-15T03:39:25;-10357.50;;;-142.94;nan
63347;BME280;49472;49.880;8.650;2023-04-15T03:41:51;-9624.97;;;-142.94;nan
63347;BME280;49472;49.880;8.650;2023-04-15T03:44:16;-12066.13;;;-142.94;nan
63347;BME280;49472;49.880;8.650;2023-04-15T03:46:41;-13286.00;;;-142.94;nan
63347;BME280;49472;49.880;8.650;2023-04-15T03:49:07;-13531.38;;;-142.94;nan
63347;BME280;49472;49.880;8.650;2023-04-15T03:51:32;-13531.38;;;-142.94;nan
63347;BME280;49472;49.880;8.650;2023-04-15T03:53:58;-13531.38;;;-142.94;nan
63347;BME280;49472;49.880;8.650;2023-04-15T03:56:23;-13529.94;;;-142.94;nan
63347;BME280;49472;49.880;8.650;2023-04-15T03:58:49;-13286.00;;;-142.94;nan
63347;BME280;49472;49.880;8.650;2023-04-15T04:01:14;-13531.38;;;-142.94;nan
63347;BME280;49472;49.880;8.650;2023-04-15T04:03:40;-13531.38;;;-142.94;nan
63347;BME280;49472;49.880;8.650;2023-04-15T04:06:06;-13529.94;;;-142.94;nan
63347;BME280;49472;49.880;8.650;2023-04-15T04:08:32;-13531.38;;;-142.94;nan
63347;BME280;49472;49.880;8.650;2023-04-15T04:10:58;-13531.38;;;-142.94;nan
63347;BME280;49472;49.880;8.650;2023-04-15T04:13:24;-13529.94;;;-142.94;nan
63347;BME280;49472;49.880;8.650;2023-04-15T04:15:49;-13531.38;;;-142.94;nan
63347;BME280;49472;49.880;8.650;2023-04-15T04:18:14;-13286.00;;;-142.94;nan
63347;BME280;49472;49.880;8.650;2023-04-15T04:20:40;-13531.38;;;-142.94;nan
63347;BME280;49472;49.880;8.650;2023-04-15T04:23:05;-13042.06;;;-142.94;nan
63347;BME280;49472;49.880;8.650;2023-04-15T04:25:31;-13531.38;;;-142.94;nan
63347;BME280;49472;49.880;8.650;2023-04-15T04:27:57;-13531.38;;;-142.94;nan
63347;BME280;49472;49.880;8.650;2023-04-15T04:30:22;-13286.00;;;-142.94;nan
63347;BME280;49472;49.880;8.650;2023-04-15T04:32:48;-12798.13;;;-142.94;nan
63347;BME280;49472;49.880;8.650;2023-04-15T04:35:14;-13042.06;;;-142.94;nan
63347;BME280;49472;49.880;8.650;2023-04-15T04:37:40;-12066.13;;;-142.94;nan
63347;BME280;49472;49.880;8.650;2023-04-15T04:40:06;-12554.13;;;-142.94;nan
63347;BME280;49472;49.880;8.650;2023-04-15T04:42:32;-13042.06;;;-142.94;nan
63347;BME280;49472;49.880;8.650;2023-04-15T04:44:57;-12310.13;;;-142.94;nan
63347;BME280;49472;49.880;8.650;2023-04-15T04:47:22;-11822.09;;;-142.94;nan
63347;BME280;49472;49.880;8.650;2023-04-15T04:49:48;-11333.97;;;-142.94;nan
63347;BME280;49472;49.880;8.650;2023-04-15T04:52:13;-11333.97;;;-142.94;nan
63347;BME280;49472;49.880;8.650;2023-04-15T04:54:38;-12554.13;;;-142.94;nan
63347;BME280;49472;49.880;8.650;2023-04-15T04:57:04;-13286.00;;;-142.94;nan
63347;BME280;49472;49.880;8.650;2023-04-15T04:59:29;-13529.94;;;-142.94;nan
63347;BME280;49472;49.880;8.650;2023-04-15T05:01:54;-13531.38;;;-142.94;nan
63347;BME280;49472;49.880;8.650;2023-04-15T05:04:20;-13531.38;;;-142.94;nan
63347;BME280;49472;49.880;8.650;2023-04-15T05:06:45;-13531.38;;;-142.94;nan
63347;BME280;49472;49.880;8.650;2023-04-15T05:09:11;-13531.38;;;-142.94;nan
63347;BME280;49472;49.880;8.650;2023-04-15T05:11:36;-13531.38;;;-142.94;nan
63347;BME280;49472;49.880;8.650;2023-04-15T05:14:01;-13531.38;;;-142.94;nan
63347;BME280;49472;49.880;8.650;2023-04-15T05:16:27;-13529.94;;;-142.94;nan
63347;BME280;49472;49.880;8.650;2023-04-15T05:18:52;-13531.38;;;-142.94;nan
63347;BME280;49472;49.880;8.650;2023-04-15T05:21:18;-13531.38;;;-142.94;nan
63347;BME280;49472;49.880;8.650;2023-04-15T05:23:43;-13531.38;;;-142.94;nan
63347;BME280;49472;49.880;8.650;2023-04-15T05:26:08;-13531.38;;;-142.94;nan
63347;BME280;49472;49.880;8.650;2023-04-15T05:28:34;-13531.38;;;-142.94;nan
63347;BME280;49472;49.880;8.650;2023-04-15T05:31:00;-13531.38;;;-142.94;nan
63347;BME280;49472;49.880;8.650;2023-04-15T05:33:25;-13531.38;;;-142.94;nan
63347;BME280;49472;49.880;8.650;2023-04-15T05:35:51;-13529.94;;;-142.94;nan
63347;BME280;49472;49.880;8.650;2023-04-15T05:38:17;-13531.38;;;-142.94;nan
63347;BME280;49472;49.880;8.650;2023-04-15T05:40:42;-13531.38;;;-142.94;nan
63347;BME280;49472;49.880;8.650;2023-04-15T05:43:07;-13531.38;;;-142.94;nan
63347;BME280;49472;49.880;8.650;2023-04-15T05:45:32;-13531.38;;;-142.94;nan
63347;BME280;49472;49.880;8.650;2023-04-15T05:47:58;-13531.38;;;-142.94;nan
63347;BME280;49472;49.880;8.650;2023-04-15T05:50:23;-13531.38;;;-142.94;nan
63347;BME280;49472;49.880;8.650;2023-04-15T05:52:48;-13531.38;;;-142.94;nan
63347;BME280;49472;49.880;8.650;2023-04-15T05:55:14;-13531.38;;;-142.94;nan
63347;BME280;49472;49.880;8.650;2023-04-15T05:57:39;-13531.38;;;-142.94;nan
63347;BME280;49472;49.880;8.650;2023-04-15T06:00:05;-13531.38;;;-142.94;nan
63347;BME280;49472;49.880;8.650;2023-04-15T06:02:30;-13531.38;;;-142.94;nan
63347;BME280;49472;49.880;8.650;2023-04-15T06:04:56;-13531.38;;;-142.94;nan
63347;BME280;49472;49.880;8.650;2023-04-15T06:07:22;-13531.38;;;-142.94;nan
63347;BME280;49472;49.880;8.650;2023-04-15T06:09:47;-13531.38;;;-142.94;nan
63347;BME280;49472;49.880;8.650;2023-04-15T06:12:13;-13531.38;;;-142.94;nan
63347;BME280;49472;49.880;8.650;2023-04-15T06:14:38;-13531.38;;;-142.94;nan
63347;BME280;49472;49.880;8.650;2023-04-15T06:17:05;-13531.38;;;-142.94;nan
63347;BME280;49472;49.880;8.650;2023-04-15T06:19:31;-13531.38;;;-142.94;nan
63347;BME280;49472;49.880;8.650;2023-04-15T06:21:57;-13531.38;;;-142.94;nan
63347;BME280;49472;49.880;8.650;2023-04-15T06:24:22;-13531.38;;;-142.94;nan
63347;BME280;49472;49.880;8.650;2023-04-15T06:26:47;-13531.38;;;-142.94;nan
63347;BME280;49472;49.880;8.650;2023-04-15T06:29:13;-13531.38;;;-142.94;nan
63347;BME280;49472;49.880;8.650;2023-04-15T06:31:38;-13531.38;;;-142.94;nan
63347;BME280;49472;49.880;8.650;2023-04-15T06:34:03;-13531.38;;;-142.94;nan
63347;BME280;49472;49.880;8.650;2023-04-15T06:36:29;-13531.38;;;-142.94;nan
63347;BME280;49472;49.880;8.650;2023-04-15T06:38:54;-13531.38;;;-142.94;nan
63347;BME280;49472;49.880;8.650;2023-04-15T06:41:21;-13531.38;;;-142.94;nan
63347;BME280;49472;49.880;8.650;2023-04-15T06:43:46;-13531.38;;;-142.94;nan
63347;BME280;49472;49.880;8.650;2023-04-15T06:46:12;-13531.38;;;-142.94;nan
63347;BME280;49472;49.880;8.650;2023-04-15T06:48:37;-13531.38;;;-142.94;nan
63347;BME280;49472;49.880;8.650;2023-04-15T06:51:03;-13531.38;;;-142.94;nan
63347;BME280;49472;49.880;8.650;2023-04-15T06:53:28;-13531.38;;;-142.94;nan
63347;BME280;49472;49.880;8.650;2023-04-15T06:55:55;-13531.38;;;-142.94;nan
63347;BME280;49472;49.880;8.650;2023-04-15T06:58:20;-13531.38;;;-142.94;nan
63347;BME280;49472;49.880;8.650;2023-04-15T07:00:46;-13531.38;;;-142.94;nan
63347;BME280;49472;49.880;8.650;2023-04-15T07:03:12;-13531.38;;;-142.94;nan
63347;BME280;49472;49.880;8.650;2023-04-15T07:05:38;-13531.38;;;-142.94;nan
63347;BME280;49472;49.880;8.650;2023-04-15T07:08:04;-13531.38;;;-142.94;nan
63347;BME280;49472;49.880;8.650;2023-04-15T07:10:29;-13531.38;;;-142.94;nan
63347;BME280;49472;49.880;8.650;2023-04-15T07:12:55;-13531.38;;;-142.94;nan
63347;BME280;49472;49.880;8.650;2023-04-15T07:15:21;-13531.38;;;-142.94;nan
63347;BME280;49472;49.880;8.650;2023-04-15T07:17:46;-13531.38;;;-142.94;nan
63347;BME280;49472;49.880;8.650;2023-04-15T07:20:12;-13531.38;;;-142.94;nan
63347;BME280;49472;49.880;8.650;2023-04-15T07:22:38;-13531.38;;;-142.94;nan
63347;BME280;49472;49.880;8.650;2023-04-15T07:25:04;-13531.38;;;-142.94;nan
63347;BME280;49472;49.880;8.650;2023-04-15T07:27:29;-13531.38;;;-142.94;nan
63347;BME280;49472;49.880;8.650;2023-04-15T07:29:55;-13529.94;;;-142.94;nan
63347;BME280;49472;49.880;8.650;2023-04-15T07:32:20;-13529.94;;;-142.94;nan
63347;BME280;49472;49.880;8.650;2023-04-15T07:34:45;-13529.94;;;-142.94;nan
63347;BME280;49472;49.880;8.650;2023-04-15T07:37:11;-13531.38;;;-142.94;nan
63347;BME280;49472;49.880;8.650;2023-04-15T07:39:36;-13531.38;;;-142.94;nan
63347;BME280;49472;49.880;8.650;2023-04-15T07:42:02;-13529.94;;;-142.94;nan
63347;BME280;49472;49.880;8.650;2023-04-15T07:44:28;-13531.38;;;-142.94;nan
63347;BME280;49472;49.880;8.650;2023-04-15T07:46:54;-13529.94;;;-142.94;nan
63347;BME280;49472;49.880;8.650;2023-04-15T07:49:20;-13529.94;;;-142.94;nan
63347;BME280;49472;49.880;8.650;2023-04-15T07:51:45;-13286.00;;;-142.94;nan
63347;BME280;49472;49.880;8.650;2023-04-15T07:54:11;-12310.13;;;-142.94;nan
63347;BME280;49472;49.880;8.650;2023-04-15T07:56:36;-13286.00;;;-142.94;nan
63347;BME280;49472;49.880;8.650;2023-04-15T07:59:02;-12554.13;;;-142.94;nan
63347;BME280;49472;49.880;8.650;2023-04-15T08:01:29;-12310.13;;;-142.94;nan
63347;BME280;49472;49.880;8.650;2023-04-15T08:03:54;-13286.00;;;-142.94;nan
63347;BME280;49472;49.880;8.650;2023-04-15T08:06:20;-13529.94;;;-142.94;nan
63347;BME280;49472;49.880;8.650;2023-04-15T08:08:45;-13286.00;;;-142.94;nan
63347;BME280;49472;49.880;8.650;2023-04-15T08:11:11;-13042.06;;;-142.94;nan
63347;BME280;49472;49.880;8.650;2023-04-15T08:13:37;-12798.13;;;-142.94;nan
63347;BME280;49472;49.880;8.650;2023-04-15T08:18:43;-11822.09;;;-142.94;nan
63347;BME280;49472;49.880;8.650;2023-04-15T08:21:09;-11578.03;;;-142.94;nan
63347;BME280;49472;49.880;8.650;2023-04-15T08:23:35;-11089.88;;;-142.94;nan
63347;BME280;49472;49.880;8.650;2023-04-15T08:26:00;-11822.09;;;-142.94;nan
63347;BME280;49472;49.880;8.650;2023-04-15T08:28:25;-12798.13;;;-142.94;nan
63347;BME280;49472;49.880;8.650;2023-04-15T08:30:54;-11822.09;;;-142.94;nan
63347;BME280;49472;49.880;8.650;2023-04-15T08:33:19;-11089.88;;;-142.94;nan
63347;BME280;49472;49.880;8.650;2023-04-15T08:35:45;-10845.78;;;-142.94;nan
63347;BME280;49472;49.880;8.650;2023-04-15T08:38:11;-10113.34;;;-142.94;nan
63347;BME280;49472;49.880;8.650;2023-04-15T08:40:44;-9869.19;;;-142.94;nan
63347;BME280;49472;49.880;8.650;2023-04-15T08:43:14;-8648.00;;;-142.94;nan
63347;BME280;49472;49.880;8.650;2023-04-15T08:45:43;-6937.59;;;-142.94;nan
63347;BME280;49472;49.880;8.650;2023-04-15T08:48:13;-6448.75;;;-142.94;nan
63347;BME280;49472;49.880;8.650;2023-04-15T08:50:41;-5470.81;;;-142.94;nan
63347;BME280;49472;49.880;8.650;2023-04-15T08:53:06;-4737.19;;;-142.94;nan
63347;BME280;49472;49.880;8.650;2023-04-15T08:55:35;-3514.09;;;-142.94;nan
63347;BME280;49472;49.880;8.650;2023-04-15T08:58:01;-2535.31;;;-142.94;nan
63347;BME280;49472;49.880;8.650;2023-04-15T09:00:31;-3269.44;;;-142.94;nan
63347;BME280;49472;49.880;8.650;2023-04-15T09:02:58;-821.69;;;-142.94;nan
63347;BME280;49472;49.880;8.650;2023-04-15T09:05:23;1382.84;;;-142.94;nan
63347;BME280;49472;49.880;8.650;2023-04-15T09:07:51;-87.03;;;-142.94;nan
63347;BME280;49472;49.880;8.650;2023-04-15T09:10:17;892.81;;;-142.94;nan
63347;BME280;49472;49.880;8.650;2023-04-15T09:12:42;3098.47;;;-142.94;nan
63347;BME280;49472;49.880;8.650;2023-04-15T09:15:10;6041.69;;;-142.94;nan
63347;BME280;49472;49.880;8.650;2023-04-15T09:17:41;8987.53;;;-142.94;nan
63347;BME280;49472;49.880;8.650;2023-04-15T09:20:11;9970.06;;;-142.94;nan
63347;BME280;49472;49.880;8.650;2023-04-15T09:22:41;9970.06;;;-142.94;nan
63347;BME280;49472;49.880;8.650;2023-04-15T09:27:52;15133.16;;;-142.94;nan
63347;BME280;49472;49.880;8.650;2023-04-15T09:30:18;19565.09;;;-142.94;nan
63347;BME280;49472;49.880;8.650;2023-04-15T09:32:52;24249.69;;;-142.94;nan
63347;BME280;49472;49.880;8.650;2023-04-15T09:35:18;28446.75;;;-142.94;nan
63347;BME280;49472;49.880;8.650;2023-04-15T09:37:44;35123.56;;;-142.94;nan
63347;BME280;49472;49.880;8.650;2023-04-15T09:40:09;35371.09;;;-142.94;nan
63347;BME280;49472;49.880;8.650;2023-04-15T09:42:35;35618.66;;;-142.94;nan
63347;BME280;49472;49.880;8.650;2023-04-15T09:45:10;37104.44;;;-142.94;nan
63347;BME280;49472;49.880;8.650;2023-04-15T09:47:36;43106.41;;;-142.94;nan
63347;BME280;49472;49.880;8.650;2023-04-15T09:50:01;41503.69;;;-142.94;nan
63347;BME280;49472;49.880;8.650;2023-04-15T09:52:27;46238.53;;;-142.94;nan
63347;BME280;49472;49.880;8.650;2023-04-15T09:54:54;44611.00;;;-142.94;nan
63347;BME280;49472;49.880;8.650;2023-04-15T09:57:23;45864.06;;;-142.94;nan
63347;BME280;49472;49.880;8.650;2023-04-15T09:59:49;46904.09;;;-142.94;nan
63347;BME280;49472;49.880;8.650;2023-04-15T10:02:15;46603.31;;;-142.94;nan
63347;BME280;49472;49.880;8.650;2023-04-15T10:04:43;47798.88;;;-142.94;nan
63347;BME280;49472;49.880;8.650;2023-04-15T10:07:10;48045.41;;;-142.94;nan
63347;BME280;49472;49.880;8.650;2023-04-15T10:09:37;48781.25;;;-142.94;nan
63347;BME280;49472;49.880;8.650;2023-04-15T10:12:03;48163.81;;;-142.94;nan
63347;BME280;49472;49.880;8.650;2023-04-15T10:14:32;48653.09;;;-142.94;nan
63347;BME280;49472;49.880;8.650;2023-04-15T10:17:00;48820.09;;;-142.94;nan
63347;BME280;49472;49.880;8.650;2023-04-15T10:19:26;48940.47;;;-142.94;nan
63347;BME280;49472;49.880;8.650;2023-04-15T10:21:55;49117.19;;;-142.94;nan
63347;BME280;49472;49.880;8.650;2023-04-15T10:24:21;49307.50;;;-142.94;nan
63347;BME280;49472;49.880;8.650;2023-04-15T10:26:49;49569.69;;;-142.94;nan
63347;BME280;49472;49.880;8.650;2023-04-15T10:29:15;49760.03;;;-142.94;nan
63347;BME280;49472;49.880;8.650;2023-04-15T10:31:41;49460.94;;;-142.94;nan
63347;BME280;49472;49.880;8.650;2023-04-15T10:34:07;49447.34;;;-142.94;nan
63347;BME280;49472;49.880;8.650;2023-04-15T10:36:33;49336.63;;;-142.94;nan
63347;BME280;49472;49.880;8.650;2023-04-15T10:38:59;49594.94;;;-142.94;nan
63347;BME280;49472;49.880;8.650;2023-04-15T10:41:25;48998.72;;;-142.94;nan
63347;BME280;49472;49.880;8.650;2023-04-15T10:44:03;49282.25;;;-142.94;nan
63347;BME280;49472;49.880;8.650;2023-04-15T10:46:36;49119.13;;;-142.94;nan
63347;BME280;49472;49.880;8.650;2023-04-15T10:49:16;49507.53;;;-142.94;nan
63347;BME280;49472;49.880;8.650;2023-04-15T10:51:46;49694.00;;;-142.94;nan
63347;BME280;49472;49.880;8.650;2023-04-15T10:56:51;49561.91;;;-142.94;nan
63347;BME280;49472;49.880;8.650;2023-04-15T10:59:16;49476.47;;;-142.94;nan
63347;BME280;49472;49.880;8.650;2023-04-15T11:02:00;48800.66;;;-142.94;nan
63347;BME280;49472;49.880;8.650;2023-04-15T11:04:52;48697.75;;;-142.94;nan
63347;BME280;49472;49.880;8.650;2023-04-15T11:12:42;49422.09;;;-142.94;nan
63347;BME280;49472;49.880;8.650;2023-04-15T11:15:39;49672.63;;;-142.94;nan
63347;BME280;49472;49.880;8.650;2023-04-15T11:20:31;49746.44;;;-142.94;nan
63347;BME280;49472;49.880;8.650;2023-04-15T11:22:56;49424.03;;;-142.94;nan
63347;BME280;49472;49.880;8.650;2023-04-15T11:25:27;49800.81;;;-142.94;nan
63347;BME280;49472;49.880;8.650;2023-04-15T11:27:53;49905.72;;;-142.94;nan
63347;BME280;49472;49.880;8.650;2023-04-15T11:30:22;49975.63;;;-142.94;nan
63347;BME280;49472;49.880;8.650;2023-04-15T11:32:50;50488.47;;;-142.94;nan
63347;BME280;49472;49.880;8.650;2023-04-15T11:35:16;50474.88;;;-142.94;nan
63347;BME280;49472;49.880;8.650;2023-04-15T11:37:45;50507.91;;;-142.94;nan
63347;BME280;49472;49.880;8.650;2023-04-15T11:40:11;50414.66;;;-142.94;nan
63347;BME280;49472;49.880;8.650;2023-04-15T11:42:37;50472.94;;;-142.94;nan
63347;BME280;49472;49.880;8.650;2023-04-15T11:45:09;50647.78;;;-142.94;nan
63347;BME280;49472;49.880;8.650;2023-04-15T11:47:39;50564.25;;;-142.94;nan
63347;BME280;49472;49.880;8.650;2023-04-15T11:50:21;50641.94;;;-142.94;nan
63347;BME280;49472;49.880;8.650;2023-04-15T11:52:57;50709.94;;;-142.94;nan
63347;BME280;49472;49.880;8.650;2023-04-15T11:55:23;50608.91;;;-142.94;nan
63347;BME280;49472;49.880;8.650;2023-04-15T12:00:38;50741.03;;;-142.94;nan
63347;BME280;49472;49.880;8.650;2023-04-15T12:03:40;50741.03;;;-142.94;nan
63347;BME280;49472;49.880;8.650;2023-04-15T12:06:15;50694.41;;;-142.94;nan
63347;BME280;49472;49.880;8.650;2023-04-15T12:08:48;50606.97;;;-142.94;nan
63347;BME280;49472;49.880;8.650;2023-04-15T12:11:17;50682.75;;;-142.94;nan
63347;BME280;49472;49.880;8.650;2023-04-15T12:13:48;50606.97;;;-142.94;nan
63347;BME280;49472;49.880;8.650;2023-04-15T12:16:17;50812.94;;;-142.94;nan
63347;BME280;49472;49.880;8.650;2023-04-15T12:18:49;50795.44;;;-142.94;nan
63347;BME280;49472;49.880;8.650;2023-04-15T12:21:18;50655.56;;;-142.94;nan
63347;BME280;49472;49.880;8.650;2023-04-15T12:23:54;50451.56;;;-142.94;nan
63347;BME280;49472;49.880;8.650;2023-04-15T12:26:32;49859.09;;;-142.94;nan
63347;BME280;49472;49.880;8.650;2023-04-15T12:29:05;48491.94;;;-142.94;nan
63347;BME280;49472;49.880;8.650;2023-04-15T12:31:31;50107.72;;;-142.94;nan
63347;BME280;49472;49.880;8.650;2023-04-15T12:33:57;49932.91;;;-142.94;nan
63347;BME280;49472;49.880;8.650;2023-04-15T12:36:23;48752.13;;;-142.94;nan
63347;BME280;49472;49.880;8.650;2023-04-15T12:38:49;43649.25;;;-142.94;nan
63347;BME280;49472;49.880;8.650;2023-04-15T12:41:14;34876.03;;;-142.94;nan
63347;BME280;49472;49.880;8.650;2023-04-15T12:43:40;15871.41;;;-142.94;nan
63347;BME280;49472;49.880;8.650;2023-04-15T12:46:06;15871.41;;;-142.94;nan
63347;BME280;49472;49.880;8.650;2023-04-15T12:48:33;9724.41;;;-142.94;nan
63347;BME280;49472;49.880;8.650;2023-04-15T12:50:58;9970.06;;;-142.94;nan
63347;BME280;49472;49.880;8.650;2023-04-15T12:53:24;10215.75;;;-142.94;nan
63347;BME280;49472;49.880;8.650;2023-04-15T12:55:50;8741.94;;;-142.94;nan
63347;BME280;49472;49.880;8.650;2023-04-15T12:58:15;1872.94;;;-142.94;nan
63347;BME280;49472;49.880;8.650;2023-04-15T13:00:41;-9136.53;;;-142.94;nan
63347;BME280;49472;49.880;8.650;2023-04-15T13:03:06;-7182.00;;;-142.94;nan
63347;BME280;49472;49.880;8.650;2023-04-15T13:05:32;-8159.41;;;-142.94;nan
63347;BME280;49472;49.880;8.650;2023-04-15T13:07:57;-12310.13;;;-142.94;nan
63347;BME280;49472;49.880;8.650;2023-04-15T13:10:22;-13531.38;;;-142.94;nan